createdAt,value
2022-08-26T00:00:06.088Z,22.10
2022-08-26T00:02:59.040Z,22.09
2022-08-26T00:05:46.211Z,22.07
2022-08-26T00:08:31.856Z,22.06
2022-08-26T00:11:26.269Z,22.06
2022-08-26T00:14:12.230Z,22.05
2022-08-26T00:16:58.901Z,22.06
2022-08-26T00:19:44.845Z,22.03
2022-08-26T00:22:30.379Z,22.03
2022-08-26T00:25:16.949Z,22.03
2022-08-26T00:28:03.062Z,22.02
2022-08-26T00:30:49.184Z,22.01
2022-08-26T00:33:37.370Z,22.02
2022-08-26T00:36:22.553Z,22.01
2022-08-26T00:39:09.296Z,21.99
2022-08-26T00:41:54.925Z,21.96
2022-08-26T00:44:48.451Z,21.92
2022-08-26T00:47:43.899Z,21.90
2022-08-26T00:50:35.490Z,21.85
2022-08-26T00:53:24.017Z,21.83
2022-08-26T00:56:53.254Z,21.82
2022-08-26T00:59:39.755Z,21.80
2022-08-26T01:02:25.662Z,21.82
2022-08-26T01:05:11.711Z,21.81
2022-08-26T01:07:57.078Z,21.81
2022-08-26T01:10:42.610Z,21.81
2022-08-26T01:13:30.798Z,21.83
2022-08-26T01:16:16.923Z,21.85
2022-08-26T01:19:26.093Z,21.87
2022-08-26T01:22:19.413Z,21.92
2022-08-26T01:25:06.614Z,21.94
2022-08-26T01:27:57.559Z,21.95
2022-08-26T01:30:44.888Z,21.94
2022-08-26T01:33:42.133Z,21.95
2022-08-26T01:36:28.816Z,21.93
2022-08-26T01:39:14.298Z,21.90
2022-08-26T01:42:03.129Z,21.86
2022-08-26T01:44:57.102Z,21.81
2022-08-26T01:47:43.265Z,21.79
2022-08-26T01:50:32.914Z,21.77
2022-08-26T01:53:20.082Z,21.75
2022-08-26T01:56:09.781Z,21.72
2022-08-26T01:58:59.289Z,21.69
2022-08-26T02:01:44.391Z,21.65
2022-08-26T02:04:37.848Z,21.60
2022-08-26T02:07:24.338Z,21.59
2022-08-26T02:10:14.463Z,21.56
2022-08-26T02:13:00.208Z,21.54
2022-08-26T02:15:46.684Z,21.51
2022-08-26T02:18:35.381Z,21.48
2022-08-26T02:21:21.727Z,21.45
2022-08-26T02:24:14.423Z,21.43
2022-08-26T02:27:01.354Z,21.41
2022-08-26T02:29:52.203Z,21.41
2022-08-26T02:32:38.343Z,21.40
2022-08-26T02:35:25.644Z,21.41
2022-08-26T02:38:11.232Z,21.41
2022-08-26T02:40:56.529Z,21.41
2022-08-26T02:43:41.825Z,21.42
2022-08-26T02:46:29.815Z,21.43
2022-08-26T02:49:16.998Z,21.44
2022-08-26T02:52:03.325Z,21.43
2022-08-26T02:54:49.466Z,21.42
2022-08-26T02:57:34.974Z,21.42
2022-08-26T03:00:20.531Z,21.41
2022-08-26T03:03:06.096Z,21.39
2022-08-26T03:05:52.540Z,21.37
2022-08-26T03:08:37.690Z,21.37
2022-08-26T03:11:24.610Z,21.37
2022-08-26T03:14:10.626Z,21.38
2022-08-26T03:16:58.643Z,21.38
2022-08-26T03:19:44.239Z,21.38
2022-08-26T03:22:29.520Z,21.36
2022-08-26T03:25:16.647Z,21.35
2022-08-26T03:28:02.355Z,21.34
2022-08-26T03:30:49.091Z,21.33
2022-08-26T03:33:34.107Z,21.33
2022-08-26T03:36:19.711Z,21.32
2022-08-26T03:39:05.278Z,21.32
2022-08-26T03:41:51.653Z,21.32
2022-08-26T03:44:37.716Z,21.31
2022-08-26T03:47:27.424Z,21.31
2022-08-26T03:50:17.182Z,21.30
2022-08-26T03:53:13.202Z,21.32
2022-08-26T03:55:58.835Z,21.32
2022-08-26T03:58:44.602Z,21.32
2022-08-26T04:01:31.645Z,21.31
2022-08-26T04:04:18.118Z,21.32
2022-08-26T04:07:07.954Z,21.31
2022-08-26T04:09:57.831Z,21.29
2022-08-26T04:12:43.578Z,21.27
2022-08-26T04:15:28.854Z,21.23
2022-08-26T04:18:14.370Z,21.21
2022-08-26T04:20:59.711Z,21.20
2022-08-26T04:23:47.553Z,21.20
2022-08-26T04:26:39.336Z,21.21
2022-08-26T04:29:28.033Z,21.22
2022-08-26T04:32:13.117Z,21.22
2022-08-26T04:34:58.834Z,21.25
2022-08-26T04:37:46.083Z,21.25
2022-08-26T04:40:31.924Z,21.28
2022-08-26T04:43:17.262Z,21.29
2022-08-26T04:46:05.349Z,21.34
2022-08-26T04:48:52.736Z,21.42
2022-08-26T04:51:38.539Z,21.48
2022-08-26T04:54:23.865Z,21.57
2022-08-26T04:57:10.482Z,21.65
2022-08-26T04:59:55.952Z,21.76
2022-08-26T05:02:41.578Z,21.88
2022-08-26T05:05:27.947Z,22.01
2022-08-26T05:08:15.533Z,22.10
2022-08-26T05:11:05.672Z,22.15
2022-08-26T05:13:51.470Z,22.19
2022-08-26T05:16:37.682Z,22.24
2022-08-26T05:19:27.860Z,22.28
2022-08-26T05:22:13.692Z,22.31
2022-08-26T05:25:00.642Z,22.32
2022-08-26T05:27:46.187Z,22.35
2022-08-26T05:30:31.531Z,22.38
2022-08-26T05:33:18.176Z,22.40
2022-08-26T05:36:10.892Z,22.43
2022-08-26T05:38:57.757Z,22.52
2022-08-26T05:41:44.795Z,22.62
2022-08-26T05:44:30.356Z,22.69
2022-08-26T05:47:35.801Z,22.81
2022-08-26T05:50:22.008Z,22.87
2022-08-26T05:53:10.357Z,22.99
2022-08-26T05:55:56.168Z,23.05
2022-08-26T05:58:42.464Z,23.07
2022-08-26T06:01:35.469Z,23.10
2022-08-26T06:04:22.260Z,23.12
2022-08-26T06:07:12.080Z,23.15
2022-08-26T06:10:21.644Z,23.21
2022-08-26T06:13:09.226Z,23.30
2022-08-26T06:15:59.265Z,23.26
2022-08-26T06:18:46.637Z,23.26
2022-08-26T06:21:34.946Z,23.34
2022-08-26T06:24:38.484Z,23.40
2022-08-26T06:27:23.684Z,23.51
2022-08-26T06:30:10.387Z,23.55
2022-08-26T06:32:55.841Z,23.62
2022-08-26T06:35:42.695Z,23.64
2022-08-26T06:38:28.853Z,23.71
2022-08-26T06:41:15.152Z,23.72
2022-08-26T06:44:02.459Z,23.87
2022-08-26T06:46:50.511Z,23.99
2022-08-26T06:49:37.168Z,23.98
2022-08-26T06:52:24.477Z,24.04
2022-08-26T06:55:10.762Z,24.19
2022-08-26T06:57:57.757Z,24.21
2022-08-26T07:00:47.198Z,24.24
2022-08-26T07:03:32.591Z,24.34
2022-08-26T07:06:27.322Z,24.51
2022-08-26T07:09:12.900Z,24.66
2022-08-26T07:11:59.682Z,24.76
2022-08-26T07:14:47.488Z,24.81
2022-08-26T07:17:34.075Z,24.71
2022-08-26T07:20:19.574Z,24.84
2022-08-26T07:23:05.048Z,24.98
2022-08-26T07:25:55.202Z,25.10
2022-08-26T07:28:41.031Z,25.23
2022-08-26T07:31:30.423Z,25.29
2022-08-26T07:34:18.695Z,25.37
2022-08-26T07:37:05.172Z,25.59
2022-08-26T07:39:54.193Z,25.78
2022-08-26T07:42:40.346Z,25.91
2022-08-26T07:45:26.107Z,25.94
2022-08-26T07:48:12.214Z,26.00
2022-08-26T07:50:57.933Z,26.09
2022-08-26T07:53:44.290Z,26.23
2022-08-26T07:56:33.860Z,26.37
2022-08-26T07:59:19.723Z,26.51
2022-08-26T08:02:06.597Z,26.63
2022-08-26T08:04:52.452Z,26.59
2022-08-26T08:07:45.272Z,26.44
2022-08-26T08:10:31.693Z,26.40
2022-08-26T08:13:17.238Z,26.31
2022-08-26T08:16:04.955Z,26.34
2022-08-26T08:18:50.488Z,26.36
2022-08-26T08:21:35.866Z,26.38
2022-08-26T08:24:21.936Z,26.42
2022-08-26T08:27:07.281Z,26.43
2022-08-26T08:29:55.020Z,26.51
2022-08-26T08:32:40.350Z,26.55
2022-08-26T08:35:26.418Z,26.52
2022-08-26T08:38:11.894Z,26.57
2022-08-26T08:40:57.038Z,26.53
2022-08-26T08:43:46.341Z,26.62
2022-08-26T08:46:31.557Z,26.65
2022-08-26T08:49:17.960Z,26.64
2022-08-26T08:52:13.416Z,26.60
2022-08-26T08:54:59.187Z,26.71
2022-08-26T08:58:08.147Z,26.73
2022-08-26T09:01:06.538Z,26.69
2022-08-26T09:04:33.199Z,26.64
2022-08-26T09:07:25.018Z,26.71
2022-08-26T09:10:38.898Z,26.87
2022-08-26T09:13:25.204Z,26.98
2022-08-26T09:16:19.199Z,26.89
2022-08-26T09:19:37.038Z,27.11
2022-08-26T09:22:35.874Z,27.15
2022-08-26T09:25:21.309Z,27.16
2022-08-26T09:28:15.803Z,27.25
2022-08-26T09:31:23.558Z,27.36
2022-08-26T09:34:24.625Z,27.50
2022-08-26T09:37:09.915Z,27.59
2022-08-26T09:40:10.943Z,27.54
2022-08-26T09:43:22.316Z,27.70
2022-08-26T09:46:22.568Z,27.93
2022-08-26T09:49:38.764Z,28.21
2022-08-26T09:52:25.966Z,28.47
2022-08-26T09:55:22.001Z,28.67
2022-08-26T09:58:09.373Z,28.70
2022-08-26T10:00:57.616Z,28.79
2022-08-26T10:03:45.528Z,28.89
2022-08-26T10:06:39.148Z,29.11
2022-08-26T10:09:25.779Z,29.34
2022-08-26T10:12:20.486Z,29.25
2022-08-26T10:15:10.812Z,29.11
2022-08-26T10:18:11.379Z,29.22
2022-08-26T10:21:03.406Z,29.13
2022-08-26T10:23:56.300Z,29.35
2022-08-26T10:26:55.978Z,29.37
2022-08-26T10:29:48.318Z,29.25
2022-08-26T10:32:41.354Z,29.13
2022-08-26T10:35:27.525Z,29.02
2022-08-26T10:38:18.294Z,29.12
2022-08-26T10:41:09.939Z,29.09
2022-08-26T10:44:00.213Z,28.83
2022-08-26T10:46:50.701Z,28.78
2022-08-26T10:49:37.847Z,28.71
2022-08-26T10:52:43.992Z,28.76
2022-08-26T10:55:47.089Z,28.87
2022-08-26T10:58:54.999Z,29.37
2022-08-26T11:01:52.632Z,29.87
2022-08-26T11:04:54.577Z,30.15
2022-08-26T11:07:44.251Z,30.27
2022-08-26T11:10:41.825Z,29.86
2022-08-26T11:14:00.117Z,29.91
2022-08-26T11:16:51.940Z,29.94
2022-08-26T11:19:59.514Z,29.89
2022-08-26T11:22:48.061Z,29.67
2022-08-26T11:25:33.950Z,29.53
2022-08-26T11:28:34.269Z,29.49
2022-08-26T11:31:25.701Z,29.51
2022-08-26T11:34:13.557Z,29.40
2022-08-26T11:37:01.451Z,29.39
2022-08-26T11:39:56.958Z,29.41
2022-08-26T11:42:49.040Z,29.42
2022-08-26T11:45:42.288Z,29.35
2022-08-26T11:48:43.183Z,29.27
2022-08-26T11:51:31.575Z,28.63
2022-08-26T11:54:32.916Z,28.12
2022-08-26T11:57:21.459Z,27.72
2022-08-26T12:00:14.972Z,27.42
2022-08-26T12:03:08.376Z,27.02
2022-08-26T12:05:54.434Z,26.06
2022-08-26T12:08:43.917Z,25.38
2022-08-26T12:11:35.063Z,25.03
2022-08-26T12:14:24.289Z,24.80
2022-08-26T12:17:13.415Z,24.66
2022-08-26T12:19:58.809Z,24.68
2022-08-26T12:22:48.203Z,24.61
2022-08-26T12:25:36.190Z,24.38
2022-08-26T12:28:23.212Z,24.27
2022-08-26T12:31:08.639Z,24.30
2022-08-26T12:33:56.412Z,24.36
2022-08-26T12:36:48.619Z,24.40
2022-08-26T12:39:37.098Z,24.41
2022-08-26T12:42:41.069Z,24.36
2022-08-26T12:45:38.357Z,24.28
2022-08-26T12:48:32.800Z,24.15
2022-08-26T12:51:27.271Z,24.08
2022-08-26T12:54:14.452Z,23.97
2022-08-26T12:57:10.316Z,23.73
2022-08-26T13:00:36.419Z,23.43
2022-08-26T13:03:34.193Z,23.13
2022-08-26T13:06:22.832Z,22.59
2022-08-26T13:09:07.855Z,21.92
2022-08-26T13:11:53.381Z,21.64
2022-08-26T13:14:40.461Z,21.54
2022-08-26T13:17:27.845Z,21.58
2022-08-26T13:20:13.353Z,21.51
2022-08-26T13:23:00.015Z,21.46
2022-08-26T13:25:45.295Z,21.42
2022-08-26T13:28:30.653Z,21.36
2022-08-26T13:31:16.232Z,21.24
2022-08-26T13:34:03.809Z,21.05
2022-08-26T13:36:51.012Z,21.01
2022-08-26T13:39:36.839Z,21.03
2022-08-26T13:42:22.865Z,21.06
2022-08-26T13:45:10.023Z,21.11
2022-08-26T13:47:55.545Z,21.09
2022-08-26T13:50:40.928Z,20.92
2022-08-26T13:53:26.281Z,20.84
2022-08-26T13:56:11.669Z,20.70
2022-08-26T13:58:58.292Z,20.54
2022-08-26T14:01:43.732Z,20.50
2022-08-26T14:04:31.946Z,20.50
2022-08-26T14:07:17.613Z,20.52
2022-08-26T14:10:03.908Z,20.51
2022-08-26T14:12:49.272Z,20.59
2022-08-26T14:15:36.081Z,20.58
2022-08-26T14:18:32.372Z,20.65
2022-08-26T14:21:18.410Z,20.64
2022-08-26T14:24:05.485Z,20.67
2022-08-26T14:26:51.044Z,20.66
2022-08-26T14:29:36.353Z,20.62
2022-08-26T14:32:25.718Z,21.07
2022-08-26T14:35:15.556Z,21.07
2022-08-26T14:38:00.867Z,20.70
2022-08-26T14:40:45.967Z,20.69
2022-08-26T14:43:31.508Z,20.51
2022-08-26T14:46:18.380Z,20.44
2022-08-26T14:49:09.903Z,20.26
2022-08-26T14:51:56.419Z,20.18
2022-08-26T14:54:42.095Z,20.37
2022-08-26T14:57:27.468Z,20.63
2022-08-26T15:00:13.301Z,20.50
2022-08-26T15:02:59.198Z,20.44
2022-08-26T15:05:48.003Z,20.21
2022-08-26T15:08:36.733Z,20.02
2022-08-26T15:11:22.394Z,19.75
2022-08-26T15:14:07.966Z,19.60
2022-08-26T15:17:05.324Z,19.50
2022-08-26T15:19:51.174Z,19.41
2022-08-26T15:22:38.073Z,19.46
2022-08-26T15:25:23.449Z,19.48
2022-08-26T15:28:09.092Z,19.40
2022-08-26T15:30:54.491Z,19.38
2022-08-26T15:33:39.960Z,19.36
2022-08-26T15:36:26.930Z,19.33
2022-08-26T15:39:13.282Z,19.32
2022-08-26T15:41:59.770Z,19.39
2022-08-26T15:44:45.520Z,19.37
2022-08-26T15:47:31.067Z,19.42
2022-08-26T15:50:20.877Z,19.47
2022-08-26T15:53:06.011Z,19.43
2022-08-26T15:55:54.743Z,19.51
2022-08-26T15:58:41.782Z,19.59
2022-08-26T16:01:31.725Z,19.47
2022-08-26T16:04:18.534Z,19.41
2022-08-26T16:07:04.599Z,19.39
2022-08-26T16:09:52.095Z,19.38
2022-08-26T16:12:39.645Z,19.43
2022-08-26T16:15:25.201Z,19.48
2022-08-26T16:18:11.064Z,19.45
2022-08-26T16:21:13.390Z,19.47
2022-08-26T16:24:00.002Z,19.58
2022-08-26T16:26:45.309Z,19.58
2022-08-26T16:29:31.969Z,19.60
2022-08-26T16:32:17.415Z,19.59
2022-08-26T16:35:02.582Z,19.56
2022-08-26T16:37:48.553Z,19.48
2022-08-26T16:40:34.326Z,19.53
2022-08-26T16:43:19.760Z,19.55
2022-08-26T16:46:07.002Z,19.62
2022-08-26T16:48:53.859Z,19.66
2022-08-26T16:51:39.168Z,19.72
2022-08-26T16:54:24.429Z,19.82
2022-08-26T16:57:12.192Z,19.91
2022-08-26T16:59:57.448Z,19.83
2022-08-26T17:02:46.333Z,19.80
2022-08-26T17:05:31.972Z,19.80
2022-08-26T17:08:28.481Z,19.77
2022-08-26T17:11:15.289Z,19.84
2022-08-26T17:14:01.467Z,19.89
2022-08-26T17:17:00.122Z,19.95
2022-08-26T17:19:47.056Z,20.01
2022-08-26T17:22:34.726Z,20.04
2022-08-26T17:25:24.457Z,20.10
2022-08-26T17:28:13.211Z,20.16
2022-08-26T17:30:59.218Z,20.18
2022-08-26T17:33:47.705Z,20.16
2022-08-26T17:36:35.739Z,20.15
2022-08-26T17:39:20.868Z,20.15
2022-08-26T17:42:06.556Z,20.20
2022-08-26T17:44:53.274Z,20.23
2022-08-26T17:47:42.225Z,20.20
2022-08-26T17:50:27.613Z,20.20
2022-08-26T17:53:18.503Z,20.16
2022-08-26T17:56:13.249Z,20.03
2022-08-26T17:59:02.398Z,20.01
2022-08-26T18:01:49.339Z,20.02
2022-08-26T18:04:34.652Z,20.05
2022-08-26T18:07:20.166Z,20.07
2022-08-26T18:10:11.253Z,20.05
2022-08-26T18:12:58.510Z,19.97
2022-08-26T18:15:47.998Z,19.95
2022-08-26T18:18:34.541Z,19.99
2022-08-26T18:21:23.050Z,19.93
2022-08-26T18:24:12.115Z,19.96
2022-08-26T18:26:58.920Z,19.99
2022-08-26T18:29:46.190Z,20.00
2022-08-26T18:32:31.439Z,19.89
2022-08-26T18:35:16.875Z,19.86
2022-08-26T18:38:11.306Z,19.87
2022-08-26T18:40:56.956Z,19.91
2022-08-26T18:43:43.088Z,19.91
2022-08-26T18:46:28.459Z,19.85
2022-08-26T18:49:15.487Z,19.83
2022-08-26T18:52:00.976Z,19.81
2022-08-26T18:54:46.515Z,19.80
2022-08-26T18:57:31.837Z,19.78
2022-08-26T19:00:17.612Z,19.77
2022-08-26T19:03:03.054Z,19.76
2022-08-26T19:05:48.982Z,19.75
2022-08-26T19:08:34.276Z,19.75
2022-08-26T19:11:32.593Z,19.77
2022-08-26T19:14:22.755Z,19.81
2022-08-26T19:17:08.864Z,19.81
2022-08-26T19:19:54.274Z,19.80
2022-08-26T19:22:39.919Z,19.76
2022-08-26T19:25:25.216Z,19.78
2022-08-26T19:28:10.669Z,19.84
2022-08-26T19:30:55.958Z,19.86
2022-08-26T19:33:43.310Z,19.91
2022-08-26T19:36:28.741Z,19.87
2022-08-26T19:39:13.964Z,19.83
2022-08-26T19:42:00.296Z,19.87
2022-08-26T19:45:03.983Z,19.95
2022-08-26T19:47:49.853Z,20.03
2022-08-26T19:50:35.050Z,20.04
2022-08-26T19:53:20.647Z,20.06
2022-08-26T19:56:06.007Z,20.09
2022-08-26T20:01:36.427Z,20.14
2022-08-26T20:04:21.726Z,20.16
2022-08-26T20:07:08.999Z,20.16
2022-08-26T20:09:54.479Z,20.13
2022-08-26T20:12:41.594Z,20.14
2022-08-26T20:15:28.502Z,20.10
2022-08-26T20:18:33.247Z,20.08
2022-08-26T20:21:27.786Z,20.09
2022-08-26T20:24:18.573Z,20.07
2022-08-26T20:27:07.796Z,19.98
2022-08-26T20:29:57.572Z,19.93
2022-08-26T20:32:43.121Z,19.90
2022-08-26T20:35:28.584Z,19.84
2022-08-26T20:38:14.646Z,19.84
2022-08-26T20:41:02.076Z,19.85
2022-08-26T20:43:47.326Z,19.86
2022-08-26T20:46:34.622Z,19.86
2022-08-26T20:49:20.332Z,19.88
2022-08-26T20:52:05.541Z,19.88
2022-08-26T20:54:50.991Z,19.89
2022-08-26T20:57:36.415Z,19.93
2022-08-26T21:00:23.034Z,19.94
2022-08-26T21:03:16.257Z,19.95
2022-08-26T21:06:01.890Z,19.94
2022-08-26T21:08:48.388Z,19.94
2022-08-26T21:11:35.368Z,19.94
2022-08-26T21:14:22.874Z,19.98
2022-08-26T21:17:13.545Z,20.00
2022-08-26T21:19:58.519Z,20.01
2022-08-26T21:22:44.212Z,20.01
2022-08-26T21:25:29.653Z,19.94
2022-08-26T21:28:14.743Z,19.92
2022-08-26T21:31:06.676Z,19.97
2022-08-26T21:33:52.272Z,19.99
2022-08-26T21:36:37.527Z,19.99
2022-08-26T21:39:23.153Z,20.00
2022-08-26T21:42:08.441Z,20.00
2022-08-26T21:44:54.304Z,20.00
2022-08-26T21:47:40.559Z,19.98
2022-08-26T21:50:27.715Z,19.91
2022-08-26T21:53:15.405Z,19.90
2022-08-26T21:56:05.451Z,19.92
2022-08-26T21:58:52.563Z,19.95
2022-08-26T22:01:38.207Z,19.96
2022-08-26T22:04:23.916Z,19.95
2022-08-26T22:07:09.224Z,20.00
2022-08-26T22:09:54.475Z,20.04
2022-08-26T22:12:39.856Z,20.11
2022-08-26T22:15:27.514Z,20.13
2022-08-26T22:18:19.688Z,20.16
2022-08-26T22:21:10.674Z,20.20
2022-08-26T22:23:58.017Z,20.26
2022-08-26T22:26:43.922Z,20.34
2022-08-26T22:29:29.222Z,20.32
2022-08-26T22:32:14.996Z,20.40
2022-08-26T22:35:00.795Z,20.42
2022-08-26T22:37:46.015Z,20.66
2022-08-26T22:40:31.390Z,20.76
2022-08-26T22:43:19.166Z,20.83
2022-08-26T22:46:05.136Z,20.71
2022-08-26T22:48:53.718Z,20.40
2022-08-26T22:51:39.738Z,20.34
2022-08-26T22:54:24.906Z,20.24
2022-08-26T22:57:10.287Z,20.17
2022-08-26T22:59:55.500Z,20.10
2022-08-26T23:02:41.306Z,20.04
2022-08-26T23:05:26.876Z,20.08
2022-08-26T23:08:12.523Z,20.12
2022-08-26T23:10:58.194Z,20.27
2022-08-26T23:13:43.474Z,20.20
2022-08-26T23:16:28.854Z,20.26
2022-08-26T23:19:22.922Z,20.33
2022-08-26T23:22:08.416Z,20.18
2022-08-26T23:24:53.641Z,20.06
2022-08-26T23:27:43.055Z,19.91
2022-08-26T23:30:30.271Z,19.93
2022-08-26T23:33:15.659Z,19.93
2022-08-26T23:36:06.837Z,19.88
2022-08-26T23:38:52.976Z,19.71
2022-08-26T23:41:38.671Z,19.65
2022-08-26T23:44:26.471Z,19.61
2022-08-26T23:47:12.574Z,19.56
2022-08-26T23:49:58.211Z,19.60
2022-08-26T23:53:02.000Z,19.61
2022-08-26T23:55:49.370Z,19.64
2022-08-26T23:58:34.481Z,19.68
